sensor_id;sensor_type;location;lat;lon;timestamp;P1;durP1;ratioP1;P2;durP2;ratioP2
17524;SDS011;40431;52.198;9.902;2024-02-15T00:00:26;8.80;;;8.30;;
17524;SDS011;40431;52.198;9.902;2024-02-15T00:02:54;9.10;;;8.50;;
17524;SDS011;40431;52.198;9.902;2024-02-15T00:05:24;8.43;;;7.90;;
17524;SDS011;40431;52.198;9.902;2024-02-15T00:07:53;8.40;;;7.90;;
17524;SDS011;40431;52.198;9.902;2024-02-15T00:10:23;8.97;;;8.27;;
17524;SDS011;40431;52.198;9.902;2024-02-15T00:12:51;9.47;;;8.87;;
17524;SDS011;40431;52.198;9.902;2024-02-15T00:15:20;8.67;;;8.10;;
17524;SDS011;40431;52.198;9.902;2024-02-15T00:17:50;9.43;;;8.83;;
17524;SDS011;40431;52.198;9.902;2024-02-15T00:20:18;9.07;;;8.50;;
17524;SDS011;40431;52.198;9.902;2024-02-15T00:22:49;9.90;;;9.30;;
17524;SDS011;40431;52.198;9.902;2024-02-15T00:25:21;10.17;;;9.47;;
17524;SDS011;40431;52.198;9.902;2024-02-15T00:27:51;9.83;;;9.03;;
17524;SDS011;40431;52.198;9.902;2024-02-15T00:30:20;9.43;;;8.83;;
17524;SDS011;40431;52.198;9.902;2024-02-15T00:32:50;9.43;;;8.80;;
17524;SDS011;40431;52.198;9.902;2024-02-15T00:35:18;9.10;;;8.50;;
17524;SDS011;40431;52.198;9.902;2024-02-15T00:37:46;8.40;;;7.90;;
17524;SDS011;40431;52.198;9.902;2024-02-15T00:40:15;9.13;;;8.47;;
17524;SDS011;40431;52.198;9.902;2024-02-15T00:42:49;9.47;;;8.73;;
17524;SDS011;40431;52.198;9.902;2024-02-15T00:45:17;8.27;;;7.67;;
17524;SDS011;40431;52.198;9.902;2024-02-15T00:47:45;9.60;;;8.90;;
17524;SDS011;40431;52.198;9.902;2024-02-15T00:50:16;8.53;;;7.93;;
17524;SDS011;40431;52.198;9.902;2024-02-15T00:52:46;8.13;;;7.53;;
17524;SDS011;40431;52.198;9.902;2024-02-15T00:55:20;8.10;;;7.50;;
17524;SDS011;40431;52.198;9.902;2024-02-15T00:57:51;9.57;;;8.30;;
17524;SDS011;40431;52.198;9.902;2024-02-15T01:00:23;7.80;;;7.23;;
17524;SDS011;40431;52.198;9.902;2024-02-15T01:02:51;8.77;;;8.27;;
17524;SDS011;40431;52.198;9.902;2024-02-15T01:05:21;7.40;;;7.00;;
17524;SDS011;40431;52.198;9.902;2024-02-15T01:07:49;7.17;;;6.67;;
17524;SDS011;40431;52.198;9.902;2024-02-15T01:10:17;8.07;;;7.43;;
17524;SDS011;40431;52.198;9.902;2024-02-15T01:12:45;6.97;;;6.53;;
17524;SDS011;40431;52.198;9.902;2024-02-15T01:15:19;7.87;;;7.27;;
17524;SDS011;40431;52.198;9.902;2024-02-15T01:17:47;6.77;;;6.27;;
17524;SDS011;40431;52.198;9.902;2024-02-15T01:20:14;7.10;;;6.60;;
17524;SDS011;40431;52.198;9.902;2024-02-15T01:22:43;7.03;;;6.63;;
17524;SDS011;40431;52.198;9.902;2024-02-15T01:25:11;6.77;;;6.27;;
17524;SDS011;40431;52.198;9.902;2024-02-15T01:27:40;6.73;;;6.23;;
17524;SDS011;40431;52.198;9.902;2024-02-15T01:30:09;6.13;;;5.73;;
17524;SDS011;40431;52.198;9.902;2024-02-15T01:32:36;6.93;;;5.93;;
17524;SDS011;40431;52.198;9.902;2024-02-15T01:35:07;6.30;;;5.90;;
17524;SDS011;40431;52.198;9.902;2024-02-15T01:37:36;6.53;;;6.13;;
17524;SDS011;40431;52.198;9.902;2024-02-15T01:40:07;6.83;;;6.33;;
17524;SDS011;40431;52.198;9.902;2024-02-15T01:42:38;6.43;;;6.03;;
17524;SDS011;40431;52.198;9.902;2024-02-15T01:45:06;6.97;;;6.57;;
17524;SDS011;40431;52.198;9.902;2024-02-15T01:47:35;6.60;;;6.20;;
17524;SDS011;40431;52.198;9.902;2024-02-15T01:50:05;6.53;;;6.13;;
17524;SDS011;40431;52.198;9.902;2024-02-15T01:52:34;6.70;;;6.17;;
17524;SDS011;40431;52.198;9.902;2024-02-15T01:55:02;6.70;;;6.30;;
17524;SDS011;40431;52.198;9.902;2024-02-15T01:57:34;5.90;;;5.60;;
17524;SDS011;40431;52.198;9.902;2024-02-15T02:00:10;6.37;;;5.93;;
17524;SDS011;40431;52.198;9.902;2024-02-15T02:02:39;5.30;;;5.00;;
17524;SDS011;40431;52.198;9.902;2024-02-15T02:05:08;6.77;;;5.53;;
17524;SDS011;40431;52.198;9.902;2024-02-15T02:07:37;5.77;;;5.37;;
17524;SDS011;40431;52.198;9.902;2024-02-15T02:10:08;5.70;;;5.30;;
17524;SDS011;40431;52.198;9.902;2024-02-15T02:12:39;5.60;;;5.30;;
17524;SDS011;40431;52.198;9.902;2024-02-15T02:15:08;5.30;;;5.00;;
17524;SDS011;40431;52.198;9.902;2024-02-15T02:17:36;5.50;;;5.10;;
17524;SDS011;40431;52.198;9.902;2024-02-15T02:20:05;5.03;;;4.73;;
17524;SDS011;40431;52.198;9.902;2024-02-15T02:22:36;4.93;;;4.63;;
17524;SDS011;40431;52.198;9.902;2024-02-15T02:25:06;4.77;;;4.47;;
17524;SDS011;40431;52.198;9.902;2024-02-15T02:27:36;4.23;;;3.93;;
17524;SDS011;40431;52.198;9.902;2024-02-15T02:30:12;4.73;;;4.43;;
17524;SDS011;40431;52.198;9.902;2024-02-15T02:32:44;4.83;;;4.53;;
17524;SDS011;40431;52.198;9.902;2024-02-15T02:35:12;4.93;;;4.53;;
17524;SDS011;40431;52.198;9.902;2024-02-15T02:37:41;4.50;;;4.20;;
17524;SDS011;40431;52.198;9.902;2024-02-15T02:40:14;4.53;;;4.13;;
17524;SDS011;40431;52.198;9.902;2024-02-15T02:42:48;4.27;;;3.97;;
17524;SDS011;40431;52.198;9.902;2024-02-15T02:45:17;3.57;;;3.37;;
17524;SDS011;40431;52.198;9.902;2024-02-15T02:47:47;4.53;;;4.23;;
17524;SDS011;40431;52.198;9.902;2024-02-15T02:50:15;4.10;;;3.80;;
17524;SDS011;40431;52.198;9.902;2024-02-15T02:52:43;4.13;;;3.90;;
17524;SDS011;40431;52.198;9.902;2024-02-15T02:55:12;4.30;;;3.97;;
17524;SDS011;40431;52.198;9.902;2024-02-15T02:57:40;3.90;;;3.70;;
17524;SDS011;40431;52.198;9.902;2024-02-15T03:00:09;3.80;;;3.60;;
17524;SDS011;40431;52.198;9.902;2024-02-15T03:02:41;3.67;;;3.47;;
17524;SDS011;40431;52.198;9.902;2024-02-15T03:05:10;3.87;;;3.67;;
17524;SDS011;40431;52.198;9.902;2024-02-15T03:07:38;4.10;;;3.90;;
17524;SDS011;40431;52.198;9.902;2024-02-15T03:10:07;4.40;;;4.10;;
17524;SDS011;40431;52.198;9.902;2024-02-15T03:12:42;4.10;;;3.90;;
17524;SDS011;40431;52.198;9.902;2024-02-15T03:15:14;4.33;;;4.13;;
17524;SDS011;40431;52.198;9.902;2024-02-15T03:17:43;4.37;;;4.07;;
17524;SDS011;40431;52.198;9.902;2024-02-15T03:20:12;4.17;;;3.97;;
17524;SDS011;40431;52.198;9.902;2024-02-15T03:22:50;4.30;;;4.00;;
17524;SDS011;40431;52.198;9.902;2024-02-15T03:25:19;3.87;;;3.67;;
17524;SDS011;40431;52.198;9.902;2024-02-15T03:27:50;3.63;;;3.43;;
17524;SDS011;40431;52.198;9.902;2024-02-15T03:30:18;3.73;;;3.40;;
17524;SDS011;40431;52.198;9.902;2024-02-15T03:32:46;3.50;;;3.30;;
17524;SDS011;40431;52.198;9.902;2024-02-15T03:35:17;3.73;;;3.43;;
17524;SDS011;40431;52.198;9.902;2024-02-15T03:37:45;3.33;;;3.13;;
17524;SDS011;40431;52.198;9.902;2024-02-15T03:40:16;3.43;;;3.13;;
17524;SDS011;40431;52.198;9.902;2024-02-15T03:42:44;3.33;;;3.13;;
17524;SDS011;40431;52.198;9.902;2024-02-15T03:45:14;3.37;;;3.17;;
17524;SDS011;40431;52.198;9.902;2024-02-15T03:47:42;3.20;;;3.00;;
17524;SDS011;40431;52.198;9.902;2024-02-15T03:50:10;2.93;;;2.73;;
17524;SDS011;40431;52.198;9.902;2024-02-15T03:52:40;3.23;;;3.03;;
17524;SDS011;40431;52.198;9.902;2024-02-15T03:55:07;3.47;;;3.27;;
17524;SDS011;40431;52.198;9.902;2024-02-15T03:57:35;3.10;;;2.90;;
17524;SDS011;40431;52.198;9.902;2024-02-15T04:00:09;2.90;;;2.70;;
17524;SDS011;40431;52.198;9.902;2024-02-15T04:02:42;3.40;;;2.77;;
17524;SDS011;40431;52.198;9.902;2024-02-15T04:05:09;3.30;;;3.10;;
17524;SDS011;40431;52.198;9.902;2024-02-15T04:07:37;3.40;;;3.10;;
17524;SDS011;40431;52.198;9.902;2024-02-15T04:10:03;2.90;;;2.80;;
17524;SDS011;40431;52.198;9.902;2024-02-15T04:12:31;3.30;;;3.10;;
17524;SDS011;40431;52.198;9.902;2024-02-15T04:14:58;3.30;;;3.10;;
17524;SDS011;40431;52.198;9.902;2024-02-15T04:17:30;3.20;;;3.00;;
17524;SDS011;40431;52.198;9.902;2024-02-15T04:19:59;3.57;;;3.37;;
17524;SDS011;40431;52.198;9.902;2024-02-15T04:22:26;4.43;;;3.87;;
17524;SDS011;40431;52.198;9.902;2024-02-15T04:24:52;3.20;;;3.00;;
17524;SDS011;40431;52.198;9.902;2024-02-15T04:27:20;3.37;;;3.17;;
17524;SDS011;40431;52.198;9.902;2024-02-15T04:29:46;4.53;;;3.57;;
17524;SDS011;40431;52.198;9.902;2024-02-15T04:32:12;3.53;;;3.33;;
17524;SDS011;40431;52.198;9.902;2024-02-15T04:34:39;3.50;;;3.30;;
17524;SDS011;40431;52.198;9.902;2024-02-15T04:37:07;4.30;;;4.00;;
17524;SDS011;40431;52.198;9.902;2024-02-15T04:39:34;4.23;;;3.97;;
17524;SDS011;40431;52.198;9.902;2024-02-15T04:42:01;4.47;;;4.17;;
17524;SDS011;40431;52.198;9.902;2024-02-15T04:44:29;3.93;;;3.73;;
17524;SDS011;40431;52.198;9.902;2024-02-15T04:47:00;3.60;;;3.40;;
17524;SDS011;40431;52.198;9.902;2024-02-15T04:49:27;3.70;;;3.50;;
17524;SDS011;40431;52.198;9.902;2024-02-15T04:51:54;4.00;;;3.70;;
17524;SDS011;40431;52.198;9.902;2024-02-15T04:54:23;4.17;;;3.97;;
17524;SDS011;40431;52.198;9.902;2024-02-15T04:56:51;4.23;;;3.93;;
17524;SDS011;40431;52.198;9.902;2024-02-15T04:59:20;4.23;;;3.97;;
17524;SDS011;40431;52.198;9.902;2024-02-15T05:01:51;4.00;;;3.80;;
17524;SDS011;40431;52.198;9.902;2024-02-15T05:04:19;3.83;;;3.63;;
17524;SDS011;40431;52.198;9.902;2024-02-15T05:06:46;4.27;;;3.97;;
17524;SDS011;40431;52.198;9.902;2024-02-15T05:09:14;4.00;;;3.80;;
17524;SDS011;40431;52.198;9.902;2024-02-15T05:11:45;4.53;;;4.30;;
17524;SDS011;40431;52.198;9.902;2024-02-15T05:14:13;4.60;;;4.30;;
17524;SDS011;40431;52.198;9.902;2024-02-15T05:16:45;5.10;;;4.70;;
17524;SDS011;40431;52.198;9.902;2024-02-15T05:19:13;4.37;;;4.17;;
17524;SDS011;40431;52.198;9.902;2024-02-15T05:21:41;4.93;;;4.60;;
17524;SDS011;40431;52.198;9.902;2024-02-15T05:24:10;4.47;;;4.17;;
17524;SDS011;40431;52.198;9.902;2024-02-15T05:26:40;6.17;;;4.87;;
17524;SDS011;40431;52.198;9.902;2024-02-15T05:29:10;4.20;;;3.90;;
17524;SDS011;40431;52.198;9.902;2024-02-15T05:31:38;5.17;;;4.77;;
17524;SDS011;40431;52.198;9.902;2024-02-15T05:34:06;4.47;;;4.07;;
17524;SDS011;40431;52.198;9.902;2024-02-15T05:36:37;4.63;;;4.27;;
17524;SDS011;40431;52.198;9.902;2024-02-15T05:39:05;4.50;;;4.10;;
17524;SDS011;40431;52.198;9.902;2024-02-15T05:41:37;5.07;;;4.67;;
17524;SDS011;40431;52.198;9.902;2024-02-15T05:44:05;4.77;;;4.47;;
17524;SDS011;40431;52.198;9.902;2024-02-15T05:46:38;5.33;;;4.93;;
17524;SDS011;40431;52.198;9.902;2024-02-15T05:49:06;5.70;;;5.30;;
17524;SDS011;40431;52.198;9.902;2024-02-15T05:51:42;6.17;;;5.77;;
17524;SDS011;40431;52.198;9.902;2024-02-15T05:54:13;5.93;;;5.53;;
17524;SDS011;40431;52.198;9.902;2024-02-15T05:56:41;6.03;;;5.57;;
17524;SDS011;40431;52.198;9.902;2024-02-15T05:59:09;6.07;;;5.67;;
17524;SDS011;40431;52.198;9.902;2024-02-15T06:01:39;5.97;;;5.53;;
17524;SDS011;40431;52.198;9.902;2024-02-15T06:04:07;6.17;;;5.67;;
17524;SDS011;40431;52.198;9.902;2024-02-15T06:06:35;5.67;;;5.17;;
17524;SDS011;40431;52.198;9.902;2024-02-15T06:09:03;5.23;;;4.93;;
17524;SDS011;40431;52.198;9.902;2024-02-15T06:11:31;5.67;;;5.27;;
17524;SDS011;40431;52.198;9.902;2024-02-15T06:14:02;5.83;;;5.40;;
17524;SDS011;40431;52.198;9.902;2024-02-15T06:16:31;5.40;;;4.97;;
17524;SDS011;40431;52.198;9.902;2024-02-15T06:19:01;5.20;;;4.80;;
17524;SDS011;40431;52.198;9.902;2024-02-15T06:21:31;5.67;;;5.27;;
17524;SDS011;40431;52.198;9.902;2024-02-15T06:23:59;5.63;;;5.23;;
17524;SDS011;40431;52.198;9.902;2024-02-15T06:26:25;5.57;;;5.07;;
17524;SDS011;40431;52.198;9.902;2024-02-15T06:28:53;6.47;;;5.30;;
17524;SDS011;40431;52.198;9.902;2024-02-15T06:31:48;6.33;;;5.77;;
17524;SDS011;40431;52.198;9.902;2024-02-15T06:34:34;6.77;;;6.17;;
17524;SDS011;40431;52.198;9.902;2024-02-15T06:37:36;6.67;;;6.10;;
17524;SDS011;40431;52.198;9.902;2024-02-15T06:40:20;6.60;;;6.00;;
17524;SDS011;40431;52.198;9.902;2024-02-15T06:42:47;7.33;;;6.70;;
17524;SDS011;40431;52.198;9.902;2024-02-15T06:45:14;8.00;;;7.43;;
17524;SDS011;40431;52.198;9.902;2024-02-15T06:47:41;7.60;;;7.00;;
17524;SDS011;40431;52.198;9.902;2024-02-15T06:50:10;7.37;;;6.67;;
17524;SDS011;40431;52.198;9.902;2024-02-15T06:52:38;7.50;;;6.80;;
17524;SDS011;40431;52.198;9.902;2024-02-15T06:55:06;7.87;;;7.10;;
17524;SDS011;40431;52.198;9.902;2024-02-15T06:57:37;15.73;;;6.97;;
17524;SDS011;40431;52.198;9.902;2024-02-15T07:00:06;7.10;;;6.50;;
17524;SDS011;40431;52.198;9.902;2024-02-15T07:02:40;8.17;;;7.37;;
17524;SDS011;40431;52.198;9.902;2024-02-15T07:05:11;7.50;;;6.83;;
17524;SDS011;40431;52.198;9.902;2024-02-15T07:07:38;7.37;;;6.70;;
17524;SDS011;40431;52.198;9.902;2024-02-15T07:10:08;8.40;;;6.70;;
17524;SDS011;40431;52.198;9.902;2024-02-15T07:12:36;7.17;;;6.67;;
17524;SDS011;40431;52.198;9.902;2024-02-15T07:15:04;7.80;;;6.87;;
17524;SDS011;40431;52.198;9.902;2024-02-15T07:17:34;7.37;;;6.67;;
17524;SDS011;40431;52.198;9.902;2024-02-15T07:22:42;7.73;;;6.33;;
17524;SDS011;40431;52.198;9.902;2024-02-15T07:25:10;5.80;;;5.40;;
17524;SDS011;40431;52.198;9.902;2024-02-15T07:27:40;6.07;;;5.47;;
17524;SDS011;40431;52.198;9.902;2024-02-15T07:30:08;6.57;;;5.87;;
17524;SDS011;40431;52.198;9.902;2024-02-15T07:32:36;8.27;;;5.13;;
17524;SDS011;40431;52.198;9.902;2024-02-15T07:35:04;5.77;;;5.07;;
17524;SDS011;40431;52.198;9.902;2024-02-15T07:37:34;5.60;;;5.10;;
17524;SDS011;40431;52.198;9.902;2024-02-15T07:40:06;7.47;;;5.07;;
17524;SDS011;40431;52.198;9.902;2024-02-15T07:42:35;4.20;;;3.80;;
17524;SDS011;40431;52.198;9.902;2024-02-15T07:45:02;4.83;;;4.33;;
17524;SDS011;40431;52.198;9.902;2024-02-15T07:47:32;7.27;;;3.93;;
17524;SDS011;40431;52.198;9.902;2024-02-15T07:49:59;6.17;;;4.30;;
17524;SDS011;40431;52.198;9.902;2024-02-15T07:52:28;6.50;;;3.73;;
17524;SDS011;40431;52.198;9.902;2024-02-15T07:54:57;3.43;;;3.13;;
17524;SDS011;40431;52.198;9.902;2024-02-15T07:57:26;3.37;;;3.07;;
17524;SDS011;40431;52.198;9.902;2024-02-15T07:59:54;5.63;;;3.03;;
17524;SDS011;40431;52.198;9.902;2024-02-15T08:02:23;3.23;;;2.83;;
17524;SDS011;40431;52.198;9.902;2024-02-15T08:04:54;3.43;;;3.13;;
17524;SDS011;40431;52.198;9.902;2024-02-15T08:07:24;4.27;;;3.97;;
17524;SDS011;40431;52.198;9.902;2024-02-15T08:10:00;5.80;;;3.40;;
17524;SDS011;40431;52.198;9.902;2024-02-15T08:12:29;4.07;;;3.30;;
17524;SDS011;40431;52.198;9.902;2024-02-15T08:14:56;3.30;;;3.03;;
17524;SDS011;40431;52.198;9.902;2024-02-15T08:17:24;2.87;;;2.50;;
17524;SDS011;40431;52.198;9.902;2024-02-15T08:19:55;4.17;;;3.13;;
17524;SDS011;40431;52.198;9.902;2024-02-15T08:22:23;3.20;;;2.90;;
17524;SDS011;40431;52.198;9.902;2024-02-15T08:24:52;4.40;;;3.27;;
17524;SDS011;40431;52.198;9.902;2024-02-15T08:27:25;3.80;;;3.00;;
17524;SDS011;40431;52.198;9.902;2024-02-15T08:29:57;4.23;;;2.73;;
17524;SDS011;40431;52.198;9.902;2024-02-15T08:32:25;2.80;;;2.60;;
17524;SDS011;40431;52.198;9.902;2024-02-15T08:34:56;2.50;;;2.30;;
17524;SDS011;40431;52.198;9.902;2024-02-15T08:37:27;2.97;;;2.53;;
17524;SDS011;40431;52.198;9.902;2024-02-15T08:39:55;3.03;;;2.10;;
17524;SDS011;40431;52.198;9.902;2024-02-15T08:42:26;3.30;;;2.40;;
17524;SDS011;40431;52.198;9.902;2024-02-15T08:44:54;2.87;;;2.40;;
17524;SDS011;40431;52.198;9.902;2024-02-15T08:47:22;2.40;;;2.20;;
17524;SDS011;40431;52.198;9.902;2024-02-15T08:49:53;2.63;;;1.80;;
17524;SDS011;40431;52.198;9.902;2024-02-15T08:52:20;1.90;;;1.80;;
17524;SDS011;40431;52.198;9.902;2024-02-15T08:54:48;5.17;;;1.90;;
17524;SDS011;40431;52.198;9.902;2024-02-15T08:57:16;3.83;;;2.00;;
17524;SDS011;40431;52.198;9.902;2024-02-15T08:59:48;2.10;;;1.93;;
17524;SDS011;40431;52.198;9.902;2024-02-15T09:02:17;2.50;;;2.23;;
17524;SDS011;40431;52.198;9.902;2024-02-15T09:04:45;2.00;;;1.90;;
17524;SDS011;40431;52.198;9.902;2024-02-15T09:07:15;2.40;;;2.03;;
17524;SDS011;40431;52.198;9.902;2024-02-15T09:09:46;2.73;;;1.90;;
17524;SDS011;40431;52.198;9.902;2024-02-15T09:12:14;2.50;;;1.97;;
17524;SDS011;40431;52.198;9.902;2024-02-15T09:14:41;1.83;;;1.73;;
17524;SDS011;40431;52.198;9.902;2024-02-15T09:17:10;2.30;;;1.90;;
17524;SDS011;40431;52.198;9.902;2024-02-15T09:19:37;2.30;;;2.10;;
17524;SDS011;40431;52.198;9.902;2024-02-15T09:22:05;2.00;;;1.90;;
17524;SDS011;40431;52.198;9.902;2024-02-15T09:24:32;1.87;;;1.73;;
17524;SDS011;40431;52.198;9.902;2024-02-15T09:27:00;2.33;;;1.80;;
17524;SDS011;40431;52.198;9.902;2024-02-15T09:29:28;2.00;;;1.70;;
17524;SDS011;40431;52.198;9.902;2024-02-15T09:31:57;2.70;;;2.40;;
17524;SDS011;40431;52.198;9.902;2024-02-15T09:34:28;4.60;;;2.10;;
17524;SDS011;40431;52.198;9.902;2024-02-15T09:36:58;3.50;;;2.20;;
17524;SDS011;40431;52.198;9.902;2024-02-15T09:39:25;1.70;;;1.57;;
17524;SDS011;40431;52.198;9.902;2024-02-15T09:41:53;3.60;;;3.23;;
17524;SDS011;40431;52.198;9.902;2024-02-15T09:44:23;4.07;;;2.00;;
17524;SDS011;40431;52.198;9.902;2024-02-15T09:46:55;3.07;;;2.07;;
17524;SDS011;40431;52.198;9.902;2024-02-15T09:49:36;2.17;;;1.97;;
17524;SDS011;40431;52.198;9.902;2024-02-15T09:52:06;3.97;;;2.30;;
17524;SDS011;40431;52.198;9.902;2024-02-15T09:54:38;1.80;;;1.70;;
17524;SDS011;40431;52.198;9.902;2024-02-15T09:57:08;3.70;;;2.07;;
17524;SDS011;40431;52.198;9.902;2024-02-15T09:59:39;3.17;;;2.00;;
17524;SDS011;40431;52.198;9.902;2024-02-15T10:02:09;2.33;;;2.10;;
17524;SDS011;40431;52.198;9.902;2024-02-15T10:04:40;1.93;;;1.83;;
17524;SDS011;40431;52.198;9.902;2024-02-15T10:07:08;1.83;;;1.73;;
17524;SDS011;40431;52.198;9.902;2024-02-15T10:09:40;3.80;;;1.97;;
17524;SDS011;40431;52.198;9.902;2024-02-15T10:12:17;2.53;;;1.80;;
17524;SDS011;40431;52.198;9.902;2024-02-15T10:14:47;2.40;;;1.60;;
17524;SDS011;40431;52.198;9.902;2024-02-15T10:17:19;1.70;;;1.60;;
17524;SDS011;40431;52.198;9.902;2024-02-15T10:38:56;2.97;;;2.13;;
17524;SDS011;40431;52.198;9.902;2024-02-15T10:41:43;4.43;;;2.13;;
17524;SDS011;40431;52.198;9.902;2024-02-15T10:44:17;4.63;;;2.43;;
17524;SDS011;40431;52.198;9.902;2024-02-15T10:46:46;2.50;;;2.30;;
17524;SDS011;40431;52.198;9.902;2024-02-15T10:49:22;3.03;;;2.53;;
17524;SDS011;40431;52.198;9.902;2024-02-15T10:51:57;6.70;;;5.03;;
17524;SDS011;40431;52.198;9.902;2024-02-15T10:54:46;3.77;;;2.70;;
17524;SDS011;40431;52.198;9.902;2024-02-15T11:00:14;5.70;;;4.47;;
17524;SDS011;40431;52.198;9.902;2024-02-15T11:03:00;4.73;;;3.60;;
17524;SDS011;40431;52.198;9.902;2024-02-15T11:05:33;2.90;;;2.57;;
17524;SDS011;40431;52.198;9.902;2024-02-15T11:08:03;4.50;;;2.33;;
17524;SDS011;40431;52.198;9.902;2024-02-15T11:10:39;3.33;;;2.47;;
17524;SDS011;40431;52.198;9.902;2024-02-15T11:13:09;2.40;;;2.20;;
17524;SDS011;40431;52.198;9.902;2024-02-15T11:15:46;2.60;;;2.10;;
17524;SDS011;40431;52.198;9.902;2024-02-15T11:21:15;2.70;;;2.50;;
17524;SDS011;40431;52.198;9.902;2024-02-15T11:23:44;2.73;;;2.53;;
17524;SDS011;40431;52.198;9.902;2024-02-15T11:32:34;3.50;;;2.10;;
17524;SDS011;40431;52.198;9.902;2024-02-15T11:35:05;2.57;;;2.40;;
17524;SDS011;40431;52.198;9.902;2024-02-15T11:37:53;2.57;;;1.90;;
17524;SDS011;40431;52.198;9.902;2024-02-15T11:40:24;3.63;;;2.10;;
17524;SDS011;40431;52.198;9.902;2024-02-15T11:42:57;2.27;;;1.70;;
17524;SDS011;40431;52.198;9.902;2024-02-15T11:45:30;3.77;;;2.17;;
17524;SDS011;40431;52.198;9.902;2024-02-15T11:47:59;2.63;;;2.00;;
17524;SDS011;40431;52.198;9.902;2024-02-15T11:50:30;2.20;;;1.60;;
17524;SDS011;40431;52.198;9.902;2024-02-15T11:53:05;3.70;;;2.00;;
17524;SDS011;40431;52.198;9.902;2024-02-15T11:55:38;2.17;;;1.97;;
17524;SDS011;40431;52.198;9.902;2024-02-15T11:58:27;2.83;;;1.80;;
17524;SDS011;40431;52.198;9.902;2024-02-15T12:01:08;1.80;;;1.70;;
17524;SDS011;40431;52.198;9.902;2024-02-15T12:03:56;2.10;;;1.70;;
17524;SDS011;40431;52.198;9.902;2024-02-15T12:06:41;1.73;;;1.60;;
17524;SDS011;40431;52.198;9.902;2024-02-15T12:09:28;2.27;;;1.90;;
17524;SDS011;40431;52.198;9.902;2024-02-15T12:12:30;2.73;;;2.23;;
17524;SDS011;40431;52.198;9.902;2024-02-15T12:15:15;4.17;;;1.80;;
17524;SDS011;40431;52.198;9.902;2024-02-15T12:21:04;4.60;;;2.07;;
17524;SDS011;40431;52.198;9.902;2024-02-15T12:23:32;3.70;;;2.10;;
17524;SDS011;40431;52.198;9.902;2024-02-15T12:26:02;6.67;;;2.10;;
17524;SDS011;40431;52.198;9.902;2024-02-15T12:28:32;1.90;;;1.70;;
17524;SDS011;40431;52.198;9.902;2024-02-15T12:31:01;2.00;;;1.90;;
17524;SDS011;40431;52.198;9.902;2024-02-15T12:33:32;2.17;;;1.97;;
17524;SDS011;40431;52.198;9.902;2024-02-15T12:36:04;2.30;;;2.10;;
17524;SDS011;40431;52.198;9.902;2024-02-15T12:38:58;2.53;;;1.70;;
17524;SDS011;40431;52.198;9.902;2024-02-15T12:41:28;2.90;;;2.40;;
17524;SDS011;40431;52.198;9.902;2024-02-15T12:43:57;7.93;;;7.13;;
17524;SDS011;40431;52.198;9.902;2024-02-15T12:46:32;7.93;;;7.33;;
17524;SDS011;40431;52.198;9.902;2024-02-15T12:49:07;3.07;;;2.87;;
17524;SDS011;40431;52.198;9.902;2024-02-15T12:51:39;3.70;;;3.40;;
17524;SDS011;40431;52.198;9.902;2024-02-15T12:54:08;3.43;;;2.43;;
17524;SDS011;40431;52.198;9.902;2024-02-15T12:56:41;2.17;;;1.93;;
17524;SDS011;40431;52.198;9.902;2024-02-15T12:59:16;2.83;;;2.63;;
17524;SDS011;40431;52.198;9.902;2024-02-15T13:01:50;3.60;;;2.70;;
17524;SDS011;40431;52.198;9.902;2024-02-15T13:04:26;2.23;;;1.80;;
17524;SDS011;40431;52.198;9.902;2024-02-15T13:06:54;2.27;;;1.97;;
17524;SDS011;40431;52.198;9.902;2024-02-15T13:09:23;4.93;;;2.03;;
17524;SDS011;40431;52.198;9.902;2024-02-15T13:11:52;2.20;;;2.00;;
17524;SDS011;40431;52.198;9.902;2024-02-15T13:14:23;1.90;;;1.73;;
17524;SDS011;40431;52.198;9.902;2024-02-15T13:16:54;2.20;;;1.70;;
17524;SDS011;40431;52.198;9.902;2024-02-15T13:19:23;2.03;;;1.57;;
17524;SDS011;40431;52.198;9.902;2024-02-15T13:21:51;2.43;;;1.80;;
17524;SDS011;40431;52.198;9.902;2024-02-15T13:24:22;2.20;;;2.00;;
17524;SDS011;40431;52.198;9.902;2024-02-15T13:26:53;3.00;;;2.20;;
17524;SDS011;40431;52.198;9.902;2024-02-15T13:29:21;1.90;;;1.70;;
17524;SDS011;40431;52.198;9.902;2024-02-15T13:31:49;2.70;;;1.73;;
17524;SDS011;40431;52.198;9.902;2024-02-15T13:34:16;2.63;;;1.77;;
17524;SDS011;40431;52.198;9.902;2024-02-15T13:36:43;2.00;;;1.83;;
17524;SDS011;40431;52.198;9.902;2024-02-15T13:39:09;2.67;;;1.70;;
17524;SDS011;40431;52.198;9.902;2024-02-15T13:41:35;2.23;;;1.73;;
17524;SDS011;40431;52.198;9.902;2024-02-15T13:44:03;1.87;;;1.77;;
17524;SDS011;40431;52.198;9.902;2024-02-15T13:46:31;2.57;;;1.80;;
17524;SDS011;40431;52.198;9.902;2024-02-15T13:48:59;1.80;;;1.70;;
17524;SDS011;40431;52.198;9.902;2024-02-15T13:51:26;2.00;;;1.90;;
17524;SDS011;40431;52.198;9.902;2024-02-15T13:53:53;3.27;;;2.67;;
17524;SDS011;40431;52.198;9.902;2024-02-15T13:56:21;1.90;;;1.80;;
17524;SDS011;40431;52.198;9.902;2024-02-15T13:58:49;5.90;;;5.50;;
17524;SDS011;40431;52.198;9.902;2024-02-15T14:01:18;2.10;;;1.90;;
17524;SDS011;40431;52.198;9.902;2024-02-15T14:03:46;3.97;;;2.60;;
17524;SDS011;40431;52.198;9.902;2024-02-15T14:06:14;3.03;;;2.50;;
17524;SDS011;40431;52.198;9.902;2024-02-15T14:08:48;2.00;;;1.90;;
17524;SDS011;40431;52.198;9.902;2024-02-15T14:11:16;1.60;;;1.50;;
17524;SDS011;40431;52.198;9.902;2024-02-15T14:13:50;1.83;;;1.73;;
17524;SDS011;40431;52.198;9.902;2024-02-15T14:16:35;2.37;;;1.80;;
17524;SDS011;40431;52.198;9.902;2024-02-15T14:19:05;2.60;;;1.97;;
17524;SDS011;40431;52.198;9.902;2024-02-15T14:21:38;2.10;;;1.60;;
17524;SDS011;40431;52.198;9.902;2024-02-15T14:24:08;1.97;;;1.83;;
17524;SDS011;40431;52.198;9.902;2024-02-15T14:26:35;2.27;;;1.60;;
17524;SDS011;40431;52.198;9.902;2024-02-15T14:29:03;1.87;;;1.50;;
17524;SDS011;40431;52.198;9.902;2024-02-15T14:31:31;2.30;;;2.00;;
17524;SDS011;40431;52.198;9.902;2024-02-15T14:34:17;2.97;;;2.77;;
17524;SDS011;40431;52.198;9.902;2024-02-15T14:36:46;2.33;;;2.03;;
17524;SDS011;40431;52.198;9.902;2024-02-15T14:39:14;2.13;;;1.93;;
17524;SDS011;40431;52.198;9.902;2024-02-15T14:41:42;2.60;;;2.33;;
17524;SDS011;40431;52.198;9.902;2024-02-15T14:44:10;5.17;;;4.67;;
17524;SDS011;40431;52.198;9.902;2024-02-15T14:46:39;8.60;;;7.77;;
17524;SDS011;40431;52.198;9.902;2024-02-15T14:49:09;10.33;;;8.63;;
17524;SDS011;40431;52.198;9.902;2024-02-15T14:51:39;8.03;;;6.50;;
17524;SDS011;40431;52.198;9.902;2024-02-15T14:54:07;20.07;;;16.97;;
17524;SDS011;40431;52.198;9.902;2024-02-15T14:56:40;5.07;;;4.23;;
17524;SDS011;40431;52.198;9.902;2024-02-15T14:59:07;4.97;;;4.13;;
17524;SDS011;40431;52.198;9.902;2024-02-15T15:01:35;23.13;;;18.03;;
17524;SDS011;40431;52.198;9.902;2024-02-15T15:04:02;8.57;;;7.57;;
17524;SDS011;40431;52.198;9.902;2024-02-15T15:06:31;4.47;;;3.50;;
17524;SDS011;40431;52.198;9.902;2024-02-15T15:09:17;11.87;;;9.03;;
17524;SDS011;40431;52.198;9.902;2024-02-15T15:12:05;34.53;;;19.77;;
17524;SDS011;40431;52.198;9.902;2024-02-15T15:14:53;14.37;;;10.80;;
17524;SDS011;40431;52.198;9.902;2024-02-15T15:17:21;7.30;;;6.60;;
17524;SDS011;40431;52.198;9.902;2024-02-15T15:19:51;4.50;;;2.60;;
17524;SDS011;40431;52.198;9.902;2024-02-15T15:22:18;5.67;;;2.60;;
17524;SDS011;40431;52.198;9.902;2024-02-15T15:24:47;2.60;;;2.40;;
17524;SDS011;40431;52.198;9.902;2024-02-15T15:27:15;2.80;;;2.60;;
17524;SDS011;40431;52.198;9.902;2024-02-15T15:29:43;3.03;;;2.73;;
17524;SDS011;40431;52.198;9.902;2024-02-15T15:32:11;2.93;;;2.63;;
17524;SDS011;40431;52.198;9.902;2024-02-15T15:34:41;3.43;;;2.77;;
17524;SDS011;40431;52.198;9.902;2024-02-15T15:37:08;2.80;;;2.60;;
17524;SDS011;40431;52.198;9.902;2024-02-15T15:39:37;3.07;;;2.33;;
17524;SDS011;40431;52.198;9.902;2024-02-15T15:42:06;2.77;;;2.50;;
17524;SDS011;40431;52.198;9.902;2024-02-15T15:44:36;3.07;;;2.87;;